sensor_id;sensor_type;location;lat;lon;timestamp;P1;durP1;ratioP1;P2;durP2;ratioP2
25123;SDS011;13104;51.030;4.686;2022-11-14T00:01:08;34.17;;;22.17;;
25123;SDS011;13104;51.030;4.686;2022-11-14T00:03:34;37.78;;;21.83;;
25123;SDS011;13104;51.030;4.686;2022-11-14T00:06:03;32.15;;;21.35;;
25123;SDS011;13104;51.030;4.686;2022-11-14T00:08:29;36.08;;;21.45;;
25123;SDS011;13104;51.030;4.686;2022-11-14T00:10:55;36.10;;;23.27;;
25123;SDS011;13104;51.030;4.686;2022-11-14T00:13:21;37.97;;;22.17;;
25123;SDS011;13104;51.030;4.686;2022-11-14T00:15:48;36.65;;;21.52;;
25123;SDS011;13104;51.030;4.686;2022-11-14T00:18:14;36.15;;;22.15;;
25123;SDS011;13104;51.030;4.686;2022-11-14T00:20:41;34.75;;;22.27;;
25123;SDS011;13104;51.030;4.686;2022-11-14T00:23:07;33.20;;;21.75;;
25123;SDS011;13104;51.030;4.686;2022-11-14T00:25:33;35.25;;;21.65;;
25123;SDS011;13104;51.030;4.686;2022-11-14T00:28:00;35.65;;;22.58;;
25123;SDS011;13104;51.030;4.686;2022-11-14T00:30:26;33.08;;;21.63;;
25123;SDS011;13104;51.030;4.686;2022-11-14T00:32:52;34.28;;;21.65;;
25123;SDS011;13104;51.030;4.686;2022-11-14T00:35:19;30.45;;;20.95;;
25123;SDS011;13104;51.030;4.686;2022-11-14T00:37:45;29.63;;;20.45;;
25123;SDS011;13104;51.030;4.686;2022-11-14T00:40:11;36.90;;;21.60;;
25123;SDS011;13104;51.030;4.686;2022-11-14T00:42:38;31.15;;;21.20;;
25123;SDS011;13104;51.030;4.686;2022-11-14T00:45:04;33.50;;;22.15;;
25123;SDS011;13104;51.030;4.686;2022-11-14T00:47:31;33.17;;;21.25;;
25123;SDS011;13104;51.030;4.686;2022-11-14T00:49:57;36.22;;;21.70;;
25123;SDS011;13104;51.030;4.686;2022-11-14T00:52:23;31.63;;;21.20;;
25123;SDS011;13104;51.030;4.686;2022-11-14T00:54:49;31.00;;;21.30;;
25123;SDS011;13104;51.030;4.686;2022-11-14T00:57:15;36.38;;;24.40;;
25123;SDS011;13104;51.030;4.686;2022-11-14T00:59:42;39.83;;;26.02;;
25123;SDS011;13104;51.030;4.686;2022-11-14T01:02:08;38.00;;;23.67;;
25123;SDS011;13104;51.030;4.686;2022-11-14T01:04:34;39.42;;;24.23;;
25123;SDS011;13104;51.030;4.686;2022-11-14T01:07:01;35.67;;;23.67;;
25123;SDS011;13104;51.030;4.686;2022-11-14T01:09:27;34.67;;;23.17;;
25123;SDS011;13104;51.030;4.686;2022-11-14T01:11:53;37.05;;;23.25;;
25123;SDS011;13104;51.030;4.686;2022-11-14T01:14:19;35.13;;;22.30;;
25123;SDS011;13104;51.030;4.686;2022-11-14T01:16:45;37.42;;;20.65;;
25123;SDS011;13104;51.030;4.686;2022-11-14T01:19:11;33.20;;;20.42;;
25123;SDS011;13104;51.030;4.686;2022-11-14T01:21:37;32.42;;;20.05;;
25123;SDS011;13104;51.030;4.686;2022-11-14T01:24:03;27.63;;;18.60;;
25123;SDS011;13104;51.030;4.686;2022-11-14T01:26:29;28.15;;;18.85;;
25123;SDS011;13104;51.030;4.686;2022-11-14T01:28:56;27.98;;;19.20;;
25123;SDS011;13104;51.030;4.686;2022-11-14T01:31:23;29.67;;;19.35;;
25123;SDS011;13104;51.030;4.686;2022-11-14T01:33:50;28.92;;;19.98;;
25123;SDS011;13104;51.030;4.686;2022-11-14T01:36:17;33.78;;;19.27;;
25123;SDS011;13104;51.030;4.686;2022-11-14T01:38:43;30.55;;;18.92;;
25123;SDS011;13104;51.030;4.686;2022-11-14T01:41:14;31.60;;;18.75;;
25123;SDS011;13104;51.030;4.686;2022-11-14T01:43:40;23.88;;;16.15;;
25123;SDS011;13104;51.030;4.686;2022-11-14T01:46:52;23.10;;;16.75;;
25123;SDS011;13104;51.030;4.686;2022-11-14T01:49:04;27.77;;;17.60;;
25123;SDS011;13104;51.030;4.686;2022-11-14T01:51:32;30.17;;;19.77;;
25123;SDS011;13104;51.030;4.686;2022-11-14T01:54:00;31.48;;;19.63;;
25123;SDS011;13104;51.030;4.686;2022-11-14T01:56:28;29.10;;;18.55;;
25123;SDS011;13104;51.030;4.686;2022-11-14T01:58:58;31.30;;;20.63;;
25123;SDS011;13104;51.030;4.686;2022-11-14T02:01:26;30.35;;;19.20;;
25123;SDS011;13104;51.030;4.686;2022-11-14T02:03:53;30.38;;;19.45;;
25123;SDS011;13104;51.030;4.686;2022-11-14T02:06:21;28.98;;;19.02;;
25123;SDS011;13104;51.030;4.686;2022-11-14T02:08:49;30.10;;;19.40;;
25123;SDS011;13104;51.030;4.686;2022-11-14T02:11:16;35.50;;;21.15;;
25123;SDS011;13104;51.030;4.686;2022-11-14T02:13:42;31.25;;;19.25;;
25123;SDS011;13104;51.030;4.686;2022-11-14T02:16:08;32.72;;;20.75;;
25123;SDS011;13104;51.030;4.686;2022-11-14T02:18:34;33.88;;;20.65;;
25123;SDS011;13104;51.030;4.686;2022-11-14T02:21:00;31.85;;;19.75;;
25123;SDS011;13104;51.030;4.686;2022-11-14T02:23:28;30.30;;;18.90;;
25123;SDS011;13104;51.030;4.686;2022-11-14T02:25:54;23.88;;;16.65;;
25123;SDS011;13104;51.030;4.686;2022-11-14T02:28:20;27.20;;;17.33;;
25123;SDS011;13104;51.030;4.686;2022-11-14T02:30:47;28.35;;;19.02;;
25123;SDS011;13104;51.030;4.686;2022-11-14T02:33:14;27.15;;;17.95;;
25123;SDS011;13104;51.030;4.686;2022-11-14T02:35:40;30.98;;;19.92;;
25123;SDS011;13104;51.030;4.686;2022-11-14T02:38:06;29.23;;;19.63;;
25123;SDS011;13104;51.030;4.686;2022-11-14T02:40:33;35.95;;;20.63;;
25123;SDS011;13104;51.030;4.686;2022-11-14T02:42:59;29.73;;;19.48;;
25123;SDS011;13104;51.030;4.686;2022-11-14T02:45:25;32.28;;;19.63;;
25123;SDS011;13104;51.030;4.686;2022-11-14T02:47:52;31.95;;;19.83;;
25123;SDS011;13104;51.030;4.686;2022-11-14T02:50:18;32.35;;;20.00;;
25123;SDS011;13104;51.030;4.686;2022-11-14T02:52:44;27.80;;;18.70;;
25123;SDS011;13104;51.030;4.686;2022-11-14T02:55:10;31.88;;;19.05;;
25123;SDS011;13104;51.030;4.686;2022-11-14T02:57:36;29.75;;;19.13;;
25123;SDS011;13104;51.030;4.686;2022-11-14T03:00:03;34.83;;;20.83;;
25123;SDS011;13104;51.030;4.686;2022-11-14T03:02:29;34.65;;;19.80;;
25123;SDS011;13104;51.030;4.686;2022-11-14T03:04:55;30.92;;;19.58;;
25123;SDS011;13104;51.030;4.686;2022-11-14T03:07:21;31.67;;;19.10;;
25123;SDS011;13104;51.030;4.686;2022-11-14T03:09:47;34.42;;;20.65;;
25123;SDS011;13104;51.030;4.686;2022-11-14T03:12:17;28.88;;;19.33;;
25123;SDS011;13104;51.030;4.686;2022-11-14T03:14:43;32.10;;;19.10;;
25123;SDS011;13104;51.030;4.686;2022-11-14T03:17:09;28.55;;;18.88;;
25123;SDS011;13104;51.030;4.686;2022-11-14T03:19:36;30.08;;;18.77;;
25123;SDS011;13104;51.030;4.686;2022-11-14T03:22:02;29.10;;;18.60;;
25123;SDS011;13104;51.030;4.686;2022-11-14T03:24:28;31.08;;;19.15;;
25123;SDS011;13104;51.030;4.686;2022-11-14T03:26:54;28.33;;;18.52;;
25123;SDS011;13104;51.030;4.686;2022-11-14T03:29:21;28.95;;;19.58;;
25123;SDS011;13104;51.030;4.686;2022-11-14T03:31:47;32.85;;;19.30;;
25123;SDS011;13104;51.030;4.686;2022-11-14T03:34:13;32.05;;;18.65;;
25123;SDS011;13104;51.030;4.686;2022-11-14T03:36:39;30.98;;;19.02;;
25123;SDS011;13104;51.030;4.686;2022-11-14T03:39:05;29.70;;;18.90;;
25123;SDS011;13104;51.030;4.686;2022-11-14T03:41:31;28.98;;;17.73;;
25123;SDS011;13104;51.030;4.686;2022-11-14T03:43:58;28.58;;;18.45;;
25123;SDS011;13104;51.030;4.686;2022-11-14T03:46:24;32.28;;;18.98;;
25123;SDS011;13104;51.030;4.686;2022-11-14T03:48:51;29.55;;;18.83;;
25123;SDS011;13104;51.030;4.686;2022-11-14T03:51:17;26.67;;;17.58;;
25123;SDS011;13104;51.030;4.686;2022-11-14T03:53:43;31.77;;;18.70;;
25123;SDS011;13104;51.030;4.686;2022-11-14T03:56:09;29.80;;;18.17;;
25123;SDS011;13104;51.030;4.686;2022-11-14T03:58:35;30.08;;;17.52;;
25123;SDS011;13104;51.030;4.686;2022-11-14T04:01:01;27.45;;;18.02;;
25123;SDS011;13104;51.030;4.686;2022-11-14T04:03:28;26.25;;;17.60;;
25123;SDS011;13104;51.030;4.686;2022-11-14T04:05:54;31.48;;;17.85;;
25123;SDS011;13104;51.030;4.686;2022-11-14T04:08:20;29.77;;;17.48;;
25123;SDS011;13104;51.030;4.686;2022-11-14T04:10:47;25.10;;;16.73;;
25123;SDS011;13104;51.030;4.686;2022-11-14T04:13:13;30.05;;;16.77;;
25123;SDS011;13104;51.030;4.686;2022-11-14T04:15:39;26.52;;;17.27;;
25123;SDS011;13104;51.030;4.686;2022-11-14T04:18:05;26.88;;;17.33;;
25123;SDS011;13104;51.030;4.686;2022-11-14T04:20:31;26.98;;;16.73;;
25123;SDS011;13104;51.030;4.686;2022-11-14T04:22:57;27.08;;;17.10;;
25123;SDS011;13104;51.030;4.686;2022-11-14T04:25:23;28.05;;;17.52;;
25123;SDS011;13104;51.030;4.686;2022-11-14T04:27:50;27.55;;;16.73;;
25123;SDS011;13104;51.030;4.686;2022-11-14T04:30:16;26.73;;;17.17;;
25123;SDS011;13104;51.030;4.686;2022-11-14T04:32:45;24.48;;;16.45;;
25123;SDS011;13104;51.030;4.686;2022-11-14T04:35:13;26.15;;;17.48;;
25123;SDS011;13104;51.030;4.686;2022-11-14T04:37:39;25.05;;;16.77;;
25123;SDS011;13104;51.030;4.686;2022-11-14T04:40:05;25.88;;;16.08;;
25123;SDS011;13104;51.030;4.686;2022-11-14T04:42:32;24.95;;;16.73;;
25123;SDS011;13104;51.030;4.686;2022-11-14T04:44:58;24.63;;;16.58;;
25123;SDS011;13104;51.030;4.686;2022-11-14T04:47:24;28.85;;;17.42;;
25123;SDS011;13104;51.030;4.686;2022-11-14T04:49:51;31.08;;;18.10;;
25123;SDS011;13104;51.030;4.686;2022-11-14T04:52:17;27.60;;;17.50;;
25123;SDS011;13104;51.030;4.686;2022-11-14T04:54:43;32.50;;;17.63;;
25123;SDS011;13104;51.030;4.686;2022-11-14T04:57:09;31.52;;;18.90;;
25123;SDS011;13104;51.030;4.686;2022-11-14T04:59:35;27.77;;;17.98;;
25123;SDS011;13104;51.030;4.686;2022-11-14T05:02:01;25.73;;;16.48;;
25123;SDS011;13104;51.030;4.686;2022-11-14T05:04:27;27.83;;;18.15;;
25123;SDS011;13104;51.030;4.686;2022-11-14T05:06:54;32.25;;;16.30;;
25123;SDS011;13104;51.030;4.686;2022-11-14T05:09:20;26.48;;;16.92;;
25123;SDS011;13104;51.030;4.686;2022-11-14T05:11:46;25.70;;;16.10;;
25123;SDS011;13104;51.030;4.686;2022-11-14T05:14:12;28.88;;;17.52;;
25123;SDS011;13104;51.030;4.686;2022-11-14T05:16:38;30.42;;;16.98;;
25123;SDS011;13104;51.030;4.686;2022-11-14T05:19:04;28.85;;;17.10;;
25123;SDS011;13104;51.030;4.686;2022-11-14T05:21:30;29.35;;;16.67;;
25123;SDS011;13104;51.030;4.686;2022-11-14T05:23:56;27.30;;;16.85;;
25123;SDS011;13104;51.030;4.686;2022-11-14T05:26:22;27.88;;;18.17;;
25123;SDS011;13104;51.030;4.686;2022-11-14T05:28:49;27.48;;;16.92;;
25123;SDS011;13104;51.030;4.686;2022-11-14T05:31:15;29.42;;;18.20;;
25123;SDS011;13104;51.030;4.686;2022-11-14T05:33:44;27.60;;;16.63;;
25123;SDS011;13104;51.030;4.686;2022-11-14T05:36:12;28.40;;;17.75;;
25123;SDS011;13104;51.030;4.686;2022-11-14T05:38:38;27.40;;;17.30;;
25123;SDS011;13104;51.030;4.686;2022-11-14T05:41:08;30.73;;;17.02;;
25123;SDS011;13104;51.030;4.686;2022-11-14T05:43:34;27.80;;;17.05;;
25123;SDS011;13104;51.030;4.686;2022-11-14T05:46:01;29.15;;;17.73;;
25123;SDS011;13104;51.030;4.686;2022-11-14T05:48:28;25.98;;;16.35;;
25123;SDS011;13104;51.030;4.686;2022-11-14T05:50:57;24.25;;;16.80;;
25123;SDS011;13104;51.030;4.686;2022-11-14T05:53:24;30.98;;;17.52;;
25123;SDS011;13104;51.030;4.686;2022-11-14T05:55:50;28.58;;;18.27;;
25123;SDS011;13104;51.030;4.686;2022-11-14T05:58:16;27.73;;;17.48;;
25123;SDS011;13104;51.030;4.686;2022-11-14T06:00:43;27.38;;;17.25;;
25123;SDS011;13104;51.030;4.686;2022-11-14T06:03:09;30.33;;;17.50;;
25123;SDS011;13104;51.030;4.686;2022-11-14T06:05:35;24.23;;;15.93;;
25123;SDS011;13104;51.030;4.686;2022-11-14T06:08:01;27.77;;;17.23;;
25123;SDS011;13104;51.030;4.686;2022-11-14T06:10:28;27.90;;;16.50;;
25123;SDS011;13104;51.030;4.686;2022-11-14T06:12:54;26.73;;;16.17;;
25123;SDS011;13104;51.030;4.686;2022-11-14T06:15:20;27.27;;;17.77;;
25123;SDS011;13104;51.030;4.686;2022-11-14T06:17:47;27.83;;;17.27;;
25123;SDS011;13104;51.030;4.686;2022-11-14T06:20:13;27.38;;;16.90;;
25123;SDS011;13104;51.030;4.686;2022-11-14T06:22:39;26.23;;;15.57;;
25123;SDS011;13104;51.030;4.686;2022-11-14T06:25:06;30.58;;;16.08;;
25123;SDS011;13104;51.030;4.686;2022-11-14T06:27:32;27.33;;;16.95;;
25123;SDS011;13104;51.030;4.686;2022-11-14T06:29:59;26.33;;;16.25;;
25123;SDS011;13104;51.030;4.686;2022-11-14T06:32:25;27.42;;;16.38;;
25123;SDS011;13104;51.030;4.686;2022-11-14T06:34:51;26.48;;;17.00;;
25123;SDS011;13104;51.030;4.686;2022-11-14T06:37:17;32.58;;;18.00;;
25123;SDS011;13104;51.030;4.686;2022-11-14T06:39:43;27.55;;;17.35;;
25123;SDS011;13104;51.030;4.686;2022-11-14T06:42:09;27.50;;;16.63;;
25123;SDS011;13104;51.030;4.686;2022-11-14T06:44:35;30.05;;;18.60;;
25123;SDS011;13104;51.030;4.686;2022-11-14T06:47:01;31.92;;;18.98;;
25123;SDS011;13104;51.030;4.686;2022-11-14T06:49:27;30.98;;;18.15;;
25123;SDS011;13104;51.030;4.686;2022-11-14T06:51:53;30.95;;;17.85;;
25123;SDS011;13104;51.030;4.686;2022-11-14T06:54:19;30.33;;;18.42;;
25123;SDS011;13104;51.030;4.686;2022-11-14T06:56:46;33.28;;;18.05;;
25123;SDS011;13104;51.030;4.686;2022-11-14T06:59:12;29.48;;;17.67;;
25123;SDS011;13104;51.030;4.686;2022-11-14T07:01:39;35.25;;;20.88;;
25123;SDS011;13104;51.030;4.686;2022-11-14T07:04:05;35.72;;;21.23;;
25123;SDS011;13104;51.030;4.686;2022-11-14T07:06:31;35.00;;;22.10;;
25123;SDS011;13104;51.030;4.686;2022-11-14T07:08:57;39.38;;;23.92;;
25123;SDS011;13104;51.030;4.686;2022-11-14T07:11:25;38.05;;;23.50;;
25123;SDS011;13104;51.030;4.686;2022-11-14T07:13:59;36.33;;;21.92;;
25123;SDS011;13104;51.030;4.686;2022-11-14T07:16:30;43.55;;;22.35;;
25123;SDS011;13104;51.030;4.686;2022-11-14T07:18:57;43.35;;;23.42;;
25123;SDS011;13104;51.030;4.686;2022-11-14T07:21:27;36.42;;;20.92;;
25123;SDS011;13104;51.030;4.686;2022-11-14T07:23:54;34.70;;;22.02;;
25123;SDS011;13104;51.030;4.686;2022-11-14T07:26:20;37.97;;;22.77;;
25123;SDS011;13104;51.030;4.686;2022-11-14T07:28:47;36.40;;;21.70;;
25123;SDS011;13104;51.030;4.686;2022-11-14T07:31:14;42.75;;;22.85;;
25123;SDS011;13104;51.030;4.686;2022-11-14T07:33:40;35.63;;;21.83;;
25123;SDS011;13104;51.030;4.686;2022-11-14T07:36:07;36.83;;;22.58;;
25123;SDS011;13104;51.030;4.686;2022-11-14T07:38:34;37.03;;;21.77;;
25123;SDS011;13104;51.030;4.686;2022-11-14T07:41:02;33.67;;;21.17;;
25123;SDS011;13104;51.030;4.686;2022-11-14T07:43:28;34.08;;;21.27;;
25123;SDS011;13104;51.030;4.686;2022-11-14T07:46:13;36.45;;;21.48;;
25123;SDS011;13104;51.030;4.686;2022-11-14T07:48:40;35.97;;;21.92;;
25123;SDS011;13104;51.030;4.686;2022-11-14T07:51:08;35.28;;;20.50;;
25123;SDS011;13104;51.030;4.686;2022-11-14T07:53:35;36.63;;;21.13;;
25123;SDS011;13104;51.030;4.686;2022-11-14T07:56:02;37.65;;;22.63;;
25123;SDS011;13104;51.030;4.686;2022-11-14T07:58:28;36.42;;;22.38;;
25123;SDS011;13104;51.030;4.686;2022-11-14T08:00:54;36.35;;;21.95;;
25123;SDS011;13104;51.030;4.686;2022-11-14T08:03:20;33.67;;;21.42;;
25123;SDS011;13104;51.030;4.686;2022-11-14T08:05:47;37.95;;;22.42;;
25123;SDS011;13104;51.030;4.686;2022-11-14T08:08:13;35.33;;;23.02;;
25123;SDS011;13104;51.030;4.686;2022-11-14T08:10:39;34.13;;;22.40;;
25123;SDS011;13104;51.030;4.686;2022-11-14T08:13:05;39.45;;;21.55;;
25123;SDS011;13104;51.030;4.686;2022-11-14T08:15:32;37.70;;;23.05;;
25123;SDS011;13104;51.030;4.686;2022-11-14T08:17:58;36.30;;;20.30;;
25123;SDS011;13104;51.030;4.686;2022-11-14T08:20:25;38.72;;;22.60;;
25123;SDS011;13104;51.030;4.686;2022-11-14T08:23:04;33.97;;;21.33;;
25123;SDS011;13104;51.030;4.686;2022-11-14T08:25:36;34.90;;;21.90;;
25123;SDS011;13104;51.030;4.686;2022-11-14T08:28:02;42.90;;;22.95;;
25123;SDS011;13104;51.030;4.686;2022-11-14T08:30:29;39.83;;;24.98;;
25123;SDS011;13104;51.030;4.686;2022-11-14T08:32:55;37.40;;;24.08;;
25123;SDS011;13104;51.030;4.686;2022-11-14T08:35:21;36.83;;;24.35;;
25123;SDS011;13104;51.030;4.686;2022-11-14T08:37:48;45.10;;;27.15;;
25123;SDS011;13104;51.030;4.686;2022-11-14T08:40:14;49.47;;;28.67;;
25123;SDS011;13104;51.030;4.686;2022-11-14T08:42:40;54.17;;;29.25;;
25123;SDS011;13104;51.030;4.686;2022-11-14T08:45:06;46.05;;;28.52;;
25123;SDS011;13104;51.030;4.686;2022-11-14T08:47:32;43.95;;;29.17;;
25123;SDS011;13104;51.030;4.686;2022-11-14T08:49:59;42.75;;;28.23;;
25123;SDS011;13104;51.030;4.686;2022-11-14T08:52:25;44.70;;;28.23;;
25123;SDS011;13104;51.030;4.686;2022-11-14T08:54:51;44.95;;;27.95;;
25123;SDS011;13104;51.030;4.686;2022-11-14T08:57:17;49.78;;;30.02;;
25123;SDS011;13104;51.030;4.686;2022-11-14T08:59:43;42.65;;;27.48;;
25123;SDS011;13104;51.030;4.686;2022-11-14T09:02:10;42.88;;;27.48;;
25123;SDS011;13104;51.030;4.686;2022-11-14T09:04:37;39.28;;;27.77;;
25123;SDS011;13104;51.030;4.686;2022-11-14T09:07:03;45.20;;;28.95;;
25123;SDS011;13104;51.030;4.686;2022-11-14T09:09:30;47.15;;;28.95;;
25123;SDS011;13104;51.030;4.686;2022-11-14T09:11:56;45.92;;;29.27;;
25123;SDS011;13104;51.030;4.686;2022-11-14T09:14:22;37.75;;;25.83;;
25123;SDS011;13104;51.030;4.686;2022-11-14T09:16:48;35.22;;;24.48;;
25123;SDS011;13104;51.030;4.686;2022-11-14T09:19:15;36.13;;;23.30;;
25123;SDS011;13104;51.030;4.686;2022-11-14T09:21:41;32.53;;;21.33;;
25123;SDS011;13104;51.030;4.686;2022-11-14T09:24:07;30.17;;;20.05;;
25123;SDS011;13104;51.030;4.686;2022-11-14T09:26:33;30.67;;;20.92;;
25123;SDS011;13104;51.030;4.686;2022-11-14T09:29:00;32.88;;;19.42;;
25123;SDS011;13104;51.030;4.686;2022-11-14T09:31:26;27.42;;;17.77;;
25123;SDS011;13104;51.030;4.686;2022-11-14T09:33:52;30.73;;;18.42;;
25123;SDS011;13104;51.030;4.686;2022-11-14T09:36:18;28.60;;;18.35;;
25123;SDS011;13104;51.030;4.686;2022-11-14T09:38:45;25.42;;;16.52;;
25123;SDS011;13104;51.030;4.686;2022-11-14T09:46:40;20.95;;;13.38;;
25123;SDS011;13104;51.030;4.686;2022-11-14T09:49:17;25.38;;;14.10;;
25123;SDS011;13104;51.030;4.686;2022-11-14T09:54:25;23.40;;;14.15;;
25123;SDS011;13104;51.030;4.686;2022-11-14T09:56:52;20.75;;;13.75;;
25123;SDS011;13104;51.030;4.686;2022-11-14T09:59:18;26.98;;;14.13;;
25123;SDS011;13104;51.030;4.686;2022-11-14T10:07:01;22.02;;;13.80;;
25123;SDS011;13104;51.030;4.686;2022-11-14T10:19:46;21.88;;;14.68;;
25123;SDS011;13104;51.030;4.686;2022-11-14T10:25:02;21.48;;;13.40;;
25123;SDS011;13104;51.030;4.686;2022-11-14T10:27:35;16.20;;;10.38;;
25123;SDS011;13104;51.030;4.686;2022-11-14T10:30:16;21.15;;;14.15;;
25123;SDS011;13104;51.030;4.686;2022-11-14T10:37:40;22.55;;;13.70;;
25123;SDS011;13104;51.030;4.686;2022-11-14T10:42:39;22.42;;;13.20;;
25123;SDS011;13104;51.030;4.686;2022-11-14T10:45:21;20.42;;;12.98;;
25123;SDS011;13104;51.030;4.686;2022-11-14T10:47:50;21.10;;;12.73;;
25123;SDS011;13104;51.030;4.686;2022-11-14T10:51:05;19.48;;;12.73;;
25123;SDS011;13104;51.030;4.686;2022-11-14T10:53:05;19.92;;;12.75;;
25123;SDS011;13104;51.030;4.686;2022-11-14T10:55:36;20.27;;;12.48;;
25123;SDS011;13104;51.030;4.686;2022-11-14T10:58:07;20.67;;;12.32;;
25123;SDS011;13104;51.030;4.686;2022-11-14T11:00:35;21.73;;;12.32;;
25123;SDS011;13104;51.030;4.686;2022-11-14T11:03:01;19.55;;;12.45;;
25123;SDS011;13104;51.030;4.686;2022-11-14T11:05:28;20.20;;;13.25;;
25123;SDS011;13104;51.030;4.686;2022-11-14T11:07:57;20.35;;;12.98;;
25123;SDS011;13104;51.030;4.686;2022-11-14T11:10:44;24.45;;;12.80;;
25123;SDS011;13104;51.030;4.686;2022-11-14T11:13:30;22.67;;;12.60;;
25123;SDS011;13104;51.030;4.686;2022-11-14T11:15:58;20.20;;;12.98;;
25123;SDS011;13104;51.030;4.686;2022-11-14T11:18:31;18.55;;;12.15;;
25123;SDS011;13104;51.030;4.686;2022-11-14T11:21:10;19.73;;;11.63;;
25123;SDS011;13104;51.030;4.686;2022-11-14T11:23:53;21.98;;;12.15;;
25123;SDS011;13104;51.030;4.686;2022-11-14T11:26:20;22.42;;;12.57;;
25123;SDS011;13104;51.030;4.686;2022-11-14T11:29:00;17.70;;;12.07;;
25123;SDS011;13104;51.030;4.686;2022-11-14T11:31:27;18.45;;;12.05;;
25123;SDS011;13104;51.030;4.686;2022-11-14T11:33:53;20.13;;;12.20;;
25123;SDS011;13104;51.030;4.686;2022-11-14T11:36:21;19.33;;;12.43;;
25123;SDS011;13104;51.030;4.686;2022-11-14T11:38:48;18.63;;;11.68;;
25123;SDS011;13104;51.030;4.686;2022-11-14T11:41:30;17.15;;;11.30;;
25123;SDS011;13104;51.030;4.686;2022-11-14T11:44:05;16.45;;;11.18;;
25123;SDS011;13104;51.030;4.686;2022-11-14T11:49:05;17.67;;;11.82;;
25123;SDS011;13104;51.030;4.686;2022-11-14T11:51:32;18.75;;;11.88;;
25123;SDS011;13104;51.030;4.686;2022-11-14T11:54:06;17.05;;;12.55;;
25123;SDS011;13104;51.030;4.686;2022-11-14T11:56:35;17.15;;;11.73;;
25123;SDS011;13104;51.030;4.686;2022-11-14T11:59:09;19.35;;;12.77;;
25123;SDS011;13104;51.030;4.686;2022-11-14T12:01:39;21.98;;;12.77;;
25123;SDS011;13104;51.030;4.686;2022-11-14T12:04:05;21.48;;;13.38;;
25123;SDS011;13104;51.030;4.686;2022-11-14T12:06:34;19.90;;;13.38;;
25123;SDS011;13104;51.030;4.686;2022-11-14T12:11:33;20.98;;;13.65;;
25123;SDS011;13104;51.030;4.686;2022-11-14T12:17:18;22.52;;;14.48;;
25123;SDS011;13104;51.030;4.686;2022-11-14T12:29:46;24.85;;;14.95;;
25123;SDS011;13104;51.030;4.686;2022-11-14T12:32:17;25.33;;;14.98;;
25123;SDS011;13104;51.030;4.686;2022-11-14T12:34:46;25.30;;;15.43;;
25123;SDS011;13104;51.030;4.686;2022-11-14T12:37:26;29.00;;;16.05;;
25123;SDS011;13104;51.030;4.686;2022-11-14T12:39:57;25.02;;;15.43;;
25123;SDS011;13104;51.030;4.686;2022-11-14T12:42:24;25.70;;;15.75;;
25123;SDS011;13104;51.030;4.686;2022-11-14T12:44:50;25.70;;;16.20;;
25123;SDS011;13104;51.030;4.686;2022-11-14T12:47:17;27.52;;;16.02;;
25123;SDS011;13104;51.030;4.686;2022-11-14T12:54:58;27.58;;;17.63;;
25123;SDS011;13104;51.030;4.686;2022-11-14T12:57:26;29.63;;;16.70;;
25123;SDS011;13104;51.030;4.686;2022-11-14T13:00:11;27.52;;;17.05;;
25123;SDS011;13104;51.030;4.686;2022-11-14T13:11:00;32.05;;;17.40;;
25123;SDS011;13104;51.030;4.686;2022-11-14T13:16:50;35.85;;;19.40;;
25123;SDS011;13104;51.030;4.686;2022-11-14T13:19:43;28.98;;;18.90;;
25123;SDS011;13104;51.030;4.686;2022-11-14T13:22:36;33.65;;;18.73;;
25123;SDS011;13104;51.030;4.686;2022-11-14T13:27:36;31.10;;;18.38;;
25123;SDS011;13104;51.030;4.686;2022-11-14T13:30:03;34.20;;;19.30;;
25123;SDS011;13104;51.030;4.686;2022-11-14T13:35:04;32.60;;;19.27;;
25123;SDS011;13104;51.030;4.686;2022-11-14T13:37:44;32.33;;;19.52;;
25123;SDS011;13104;51.030;4.686;2022-11-14T13:48:01;36.15;;;20.05;;
25123;SDS011;13104;51.030;4.686;2022-11-14T13:50:33;33.60;;;19.05;;
25123;SDS011;13104;51.030;4.686;2022-11-14T13:53:00;35.42;;;19.58;;
25123;SDS011;13104;51.030;4.686;2022-11-14T14:08:28;36.20;;;20.15;;
25123;SDS011;13104;51.030;4.686;2022-11-14T14:16:28;34.22;;;19.45;;
25123;SDS011;13104;51.030;4.686;2022-11-14T14:32:05;38.35;;;21.42;;
25123;SDS011;13104;51.030;4.686;2022-11-14T14:34:35;35.17;;;21.35;;
25123;SDS011;13104;51.030;4.686;2022-11-14T14:37:01;39.70;;;21.95;;
25123;SDS011;13104;51.030;4.686;2022-11-14T14:39:27;39.42;;;22.23;;
25123;SDS011;13104;51.030;4.686;2022-11-14T14:41:54;37.90;;;21.50;;
25123;SDS011;13104;51.030;4.686;2022-11-14T14:44:25;41.13;;;22.73;;
25123;SDS011;13104;51.030;4.686;2022-11-14T14:46:52;36.90;;;21.33;;
25123;SDS011;13104;51.030;4.686;2022-11-14T14:51:48;37.10;;;21.83;;
25123;SDS011;13104;51.030;4.686;2022-11-14T14:54:21;38.90;;;23.02;;
25123;SDS011;13104;51.030;4.686;2022-11-14T14:56:54;36.47;;;22.00;;
25123;SDS011;13104;51.030;4.686;2022-11-14T14:59:21;39.03;;;22.05;;
25123;SDS011;13104;51.030;4.686;2022-11-14T15:01:48;38.30;;;22.02;;
25123;SDS011;13104;51.030;4.686;2022-11-14T15:04:14;38.03;;;21.50;;
25123;SDS011;13104;51.030;4.686;2022-11-14T15:06:43;43.05;;;22.55;;
25123;SDS011;13104;51.030;4.686;2022-11-14T15:12:04;42.92;;;23.60;;
25123;SDS011;13104;51.030;4.686;2022-11-14T15:14:31;47.95;;;26.15;;
25123;SDS011;13104;51.030;4.686;2022-11-14T15:16:59;44.97;;;24.23;;
25123;SDS011;13104;51.030;4.686;2022-11-14T15:19:27;42.20;;;25.48;;
25123;SDS011;13104;51.030;4.686;2022-11-14T15:22:00;46.80;;;25.20;;
25123;SDS011;13104;51.030;4.686;2022-11-14T15:24:27;49.20;;;27.13;;
25123;SDS011;13104;51.030;4.686;2022-11-14T15:26:53;47.10;;;27.25;;
25123;SDS011;13104;51.030;4.686;2022-11-14T15:29:20;50.80;;;27.67;;
25123;SDS011;13104;51.030;4.686;2022-11-14T15:31:47;51.25;;;28.90;;
25123;SDS011;13104;51.030;4.686;2022-11-14T15:34:22;46.80;;;27.50;;
25123;SDS011;13104;51.030;4.686;2022-11-14T15:37:05;52.78;;;29.70;;
25123;SDS011;13104;51.030;4.686;2022-11-14T15:39:31;51.83;;;29.45;;
25123;SDS011;13104;51.030;4.686;2022-11-14T15:44:42;53.83;;;29.33;;
25123;SDS011;13104;51.030;4.686;2022-11-14T15:47:16;57.55;;;29.83;;
25123;SDS011;13104;51.030;4.686;2022-11-14T15:49:59;48.70;;;29.17;;
25123;SDS011;13104;51.030;4.686;2022-11-14T15:52:31;79.05;;;30.08;;
25123;SDS011;13104;51.030;4.686;2022-11-14T15:54:58;45.13;;;27.30;;
25123;SDS011;13104;51.030;4.686;2022-11-14T15:57:24;43.03;;;25.73;;
25123;SDS011;13104;51.030;4.686;2022-11-14T15:59:50;40.88;;;25.70;;
25123;SDS011;13104;51.030;4.686;2022-11-14T16:02:25;42.97;;;25.70;;
25123;SDS011;13104;51.030;4.686;2022-11-14T16:04:52;43.80;;;26.80;;
25123;SDS011;13104;51.030;4.686;2022-11-14T16:07:19;44.75;;;26.83;;
25123;SDS011;13104;51.030;4.686;2022-11-14T16:09:45;41.30;;;25.15;;
25123;SDS011;13104;51.030;4.686;2022-11-14T16:12:11;47.75;;;28.38;;
25123;SDS011;13104;51.030;4.686;2022-11-14T16:14:38;48.47;;;28.13;;
25123;SDS011;13104;51.030;4.686;2022-11-14T16:17:04;45.45;;;27.88;;
25123;SDS011;13104;51.030;4.686;2022-11-14T16:19:30;42.28;;;26.17;;
25123;SDS011;13104;51.030;4.686;2022-11-14T16:21:57;43.13;;;26.75;;
25123;SDS011;13104;51.030;4.686;2022-11-14T16:24:26;47.63;;;27.92;;
25123;SDS011;13104;51.030;4.686;2022-11-14T16:26:52;44.47;;;27.23;;